sensor_id;sensor_type;location;lat;lon;timestamp;temperature;humidity
9658;DHT22;4867;48.112;11.622;2023-07-09T00:02:23;20.00;99.90
9658;DHT22;4867;48.112;11.622;2023-07-09T00:04:51;20.10;99.90
9658;DHT22;4867;48.112;11.622;2023-07-09T00:07:28;20.00;99.90
9658;DHT22;4867;48.112;11.622;2023-07-09T00:09:56;20.00;99.90
9658;DHT22;4867;48.112;11.622;2023-07-09T00:12:24;20.00;99.90
9658;DHT22;4867;48.112;11.622;2023-07-09T00:14:52;19.90;99.90
9658;DHT22;4867;48.112;11.622;2023-07-09T00:17:29;19.90;99.90
9658;DHT22;4867;48.112;11.622;2023-07-09T00:19:59;19.90;99.90
9658;DHT22;4867;48.112;11.622;2023-07-09T00:22:27;19.80;99.90
9658;DHT22;4867;48.112;11.622;2023-07-09T00:24:55;19.80;99.90
9658;DHT22;4867;48.112;11.622;2023-07-09T00:27:28;19.80;99.90
9658;DHT22;4867;48.112;11.622;2023-07-09T00:29:56;19.80;99.90
9658;DHT22;4867;48.112;11.622;2023-07-09T00:32:24;19.80;99.90
9658;DHT22;4867;48.112;11.622;2023-07-09T00:34:53;19.80;99.90
9658;DHT22;4867;48.112;11.622;2023-07-09T00:37:24;19.70;99.90
9658;DHT22;4867;48.112;11.622;2023-07-09T00:39:56;19.80;99.90
9658;DHT22;4867;48.112;11.622;2023-07-09T00:42:23;19.70;99.90
9658;DHT22;4867;48.112;11.622;2023-07-09T00:45:00;19.80;99.90
9658;DHT22;4867;48.112;11.622;2023-07-09T00:50:32;19.50;99.90
9658;DHT22;4867;48.112;11.622;2023-07-09T00:53:25;19.40;99.90
9658;DHT22;4867;48.112;11.622;2023-07-09T00:56:03;19.30;99.90
9658;DHT22;4867;48.112;11.622;2023-07-09T00:58:34;19.20;99.90
9658;DHT22;4867;48.112;11.622;2023-07-09T01:01:09;19.30;99.90
9658;DHT22;4867;48.112;11.622;2023-07-09T01:04:02;19.20;99.90
9658;DHT22;4867;48.112;11.622;2023-07-09T01:06:44;19.20;99.90
9658;DHT22;4867;48.112;11.622;2023-07-09T01:09:16;19.10;99.90
9658;DHT22;4867;48.112;11.622;2023-07-09T01:11:47;19.10;99.90
9658;DHT22;4867;48.112;11.622;2023-07-09T01:14:19;19.10;99.90
9658;DHT22;4867;48.112;11.622;2023-07-09T01:16:54;18.90;99.90
9658;DHT22;4867;48.112;11.622;2023-07-09T01:19:28;18.90;99.90
9658;DHT22;4867;48.112;11.622;2023-07-09T01:21:59;18.90;99.90
9658;DHT22;4867;48.112;11.622;2023-07-09T01:27:42;18.80;99.90
9658;DHT22;4867;48.112;11.622;2023-07-09T01:30:30;18.90;99.90
9658;DHT22;4867;48.112;11.622;2023-07-09T01:33:00;18.90;99.90
9658;DHT22;4867;48.112;11.622;2023-07-09T01:35:31;18.90;99.90
9658;DHT22;4867;48.112;11.622;2023-07-09T01:38:08;18.90;99.90
9658;DHT22;4867;48.112;11.622;2023-07-09T01:40:37;18.90;99.90
9658;DHT22;4867;48.112;11.622;2023-07-09T01:43:21;18.80;99.90
9658;DHT22;4867;48.112;11.622;2023-07-09T01:45:48;18.80;99.90
9658;DHT22;4867;48.112;11.622;2023-07-09T01:48:18;18.70;99.90
9658;DHT22;4867;48.112;11.622;2023-07-09T01:50:47;18.60;99.90
9658;DHT22;4867;48.112;11.622;2023-07-09T01:53:21;18.60;99.90
9658;DHT22;4867;48.112;11.622;2023-07-09T01:55:52;18.60;99.90
9658;DHT22;4867;48.112;11.622;2023-07-09T01:58:23;18.60;99.90
9658;DHT22;4867;48.112;11.622;2023-07-09T02:01:00;18.70;99.90
9658;DHT22;4867;48.112;11.622;2023-07-09T02:03:28;18.60;99.90
9658;DHT22;4867;48.112;11.622;2023-07-09T02:06:00;18.60;99.90
9658;DHT22;4867;48.112;11.622;2023-07-09T02:08:32;18.70;99.90
9658;DHT22;4867;48.112;11.622;2023-07-09T02:11:04;18.60;99.90
9658;DHT22;4867;48.112;11.622;2023-07-09T02:13:35;18.70;99.90
9658;DHT22;4867;48.112;11.622;2023-07-09T02:16:06;18.60;99.90
9658;DHT22;4867;48.112;11.622;2023-07-09T02:18:36;18.60;99.90
9658;DHT22;4867;48.112;11.622;2023-07-09T02:21:09;18.60;99.90
9658;DHT22;4867;48.112;11.622;2023-07-09T02:23:36;18.60;99.90
9658;DHT22;4867;48.112;11.622;2023-07-09T02:26:04;18.60;99.90
9658;DHT22;4867;48.112;11.622;2023-07-09T02:28:34;18.60;99.90
9658;DHT22;4867;48.112;11.622;2023-07-09T02:31:28;18.60;99.90
9658;DHT22;4867;48.112;11.622;2023-07-09T02:34:00;18.60;99.90
9658;DHT22;4867;48.112;11.622;2023-07-09T02:36:30;18.60;99.90
9658;DHT22;4867;48.112;11.622;2023-07-09T02:39:05;18.50;99.90
9658;DHT22;4867;48.112;11.622;2023-07-09T02:41:56;18.50;99.90
9658;DHT22;4867;48.112;11.622;2023-07-09T02:44:24;18.40;99.90
9658;DHT22;4867;48.112;11.622;2023-07-09T02:46:58;18.40;99.90
9658;DHT22;4867;48.112;11.622;2023-07-09T02:49:30;18.30;99.90
9658;DHT22;4867;48.112;11.622;2023-07-09T02:51:58;18.30;99.90
9658;DHT22;4867;48.112;11.622;2023-07-09T02:54:26;18.30;99.90
9658;DHT22;4867;48.112;11.622;2023-07-09T02:56:54;18.20;99.90
9658;DHT22;4867;48.112;11.622;2023-07-09T02:59:25;18.20;99.90
9658;DHT22;4867;48.112;11.622;2023-07-09T03:01:53;18.20;99.90
9658;DHT22;4867;48.112;11.622;2023-07-09T03:04:23;18.20;99.90
9658;DHT22;4867;48.112;11.622;2023-07-09T03:07:01;18.20;99.90
9658;DHT22;4867;48.112;11.622;2023-07-09T03:09:29;18.20;99.90
9658;DHT22;4867;48.112;11.622;2023-07-09T03:12:06;18.20;99.90
9658;DHT22;4867;48.112;11.622;2023-07-09T03:14:33;18.20;99.90
9658;DHT22;4867;48.112;11.622;2023-07-09T03:17:01;18.20;99.90
9658;DHT22;4867;48.112;11.622;2023-07-09T03:19:28;18.10;99.90
9658;DHT22;4867;48.112;11.622;2023-07-09T03:21:56;18.20;99.90
9658;DHT22;4867;48.112;11.622;2023-07-09T03:24:25;18.20;99.90
9658;DHT22;4867;48.112;11.622;2023-07-09T03:26:56;18.20;99.90
9658;DHT22;4867;48.112;11.622;2023-07-09T03:29:24;18.30;99.90
9658;DHT22;4867;48.112;11.622;2023-07-09T03:31:56;18.20;99.90
9658;DHT22;4867;48.112;11.622;2023-07-09T03:34:24;18.30;99.90
9658;DHT22;4867;48.112;11.622;2023-07-09T03:36:54;18.30;99.90
9658;DHT22;4867;48.112;11.622;2023-07-09T03:39:40;18.30;99.90
9658;DHT22;4867;48.112;11.622;2023-07-09T03:42:08;18.30;99.90
9658;DHT22;4867;48.112;11.622;2023-07-09T03:44:39;18.30;99.90
9658;DHT22;4867;48.112;11.622;2023-07-09T03:47:08;18.30;99.90
9658;DHT22;4867;48.112;11.622;2023-07-09T03:49:39;18.40;99.90
9658;DHT22;4867;48.112;11.622;2023-07-09T03:52:09;18.40;99.90
9658;DHT22;4867;48.112;11.622;2023-07-09T03:54:36;18.70;99.90
9658;DHT22;4867;48.112;11.622;2023-07-09T03:57:04;19.00;99.90
9658;DHT22;4867;48.112;11.622;2023-07-09T03:59:35;19.40;99.90
9658;DHT22;4867;48.112;11.622;2023-07-09T04:02:06;19.70;99.90
9658;DHT22;4867;48.112;11.622;2023-07-09T04:04:34;19.90;99.90
9658;DHT22;4867;48.112;11.622;2023-07-09T04:07:01;20.20;99.90
9658;DHT22;4867;48.112;11.622;2023-07-09T04:09:29;20.40;99.90
9658;DHT22;4867;48.112;11.622;2023-07-09T04:11:56;20.70;99.90
9658;DHT22;4867;48.112;11.622;2023-07-09T04:14:23;20.90;99.90
9658;DHT22;4867;48.112;11.622;2023-07-09T04:16:51;21.00;99.90
9658;DHT22;4867;48.112;11.622;2023-07-09T04:19:18;21.20;99.90
9658;DHT22;4867;48.112;11.622;2023-07-09T04:21:46;21.30;99.90
9658;DHT22;4867;48.112;11.622;2023-07-09T04:24:15;21.30;99.90
9658;DHT22;4867;48.112;11.622;2023-07-09T04:26:43;21.20;99.90
9658;DHT22;4867;48.112;11.622;2023-07-09T04:29:11;21.20;99.90
9658;DHT22;4867;48.112;11.622;2023-07-09T04:31:38;21.10;99.90
9658;DHT22;4867;48.112;11.622;2023-07-09T04:34:07;21.10;99.90
9658;DHT22;4867;48.112;11.622;2023-07-09T04:36:34;21.00;99.90
9658;DHT22;4867;48.112;11.622;2023-07-09T04:39:02;20.90;99.90
9658;DHT22;4867;48.112;11.622;2023-07-09T04:41:30;20.90;99.90
9658;DHT22;4867;48.112;11.622;2023-07-09T04:43:58;21.00;99.90
9658;DHT22;4867;48.112;11.622;2023-07-09T04:46:25;20.90;99.90
9658;DHT22;4867;48.112;11.622;2023-07-09T04:48:52;20.90;99.90
9658;DHT22;4867;48.112;11.622;2023-07-09T04:51:20;21.10;99.90
9658;DHT22;4867;48.112;11.622;2023-07-09T04:53:47;21.20;99.90
9658;DHT22;4867;48.112;11.622;2023-07-09T04:56:14;21.10;99.90
9658;DHT22;4867;48.112;11.622;2023-07-09T04:58:42;21.20;99.90
9658;DHT22;4867;48.112;11.622;2023-07-09T05:01:10;21.40;99.90
9658;DHT22;4867;48.112;11.622;2023-07-09T05:03:39;21.60;99.90
9658;DHT22;4867;48.112;11.622;2023-07-09T05:06:06;21.70;99.90
9658;DHT22;4867;48.112;11.622;2023-07-09T05:08:34;22.20;99.90
9658;DHT22;4867;48.112;11.622;2023-07-09T05:11:01;22.70;99.90
9658;DHT22;4867;48.112;11.622;2023-07-09T05:13:28;23.10;99.90
9658;DHT22;4867;48.112;11.622;2023-07-09T05:15:55;23.60;99.90
9658;DHT22;4867;48.112;11.622;2023-07-09T05:18:23;23.80;99.90
9658;DHT22;4867;48.112;11.622;2023-07-09T05:20:51;24.30;99.90
9658;DHT22;4867;48.112;11.622;2023-07-09T05:23:18;24.50;99.90
9658;DHT22;4867;48.112;11.622;2023-07-09T05:25:45;24.60;99.90
9658;DHT22;4867;48.112;11.622;2023-07-09T05:28:13;24.70;99.90
9658;DHT22;4867;48.112;11.622;2023-07-09T05:30:43;24.70;99.90
9658;DHT22;4867;48.112;11.622;2023-07-09T05:33:10;24.70;99.90
9658;DHT22;4867;48.112;11.622;2023-07-09T05:35:38;24.60;99.90
9658;DHT22;4867;48.112;11.622;2023-07-09T05:38:05;24.40;99.90
9658;DHT22;4867;48.112;11.622;2023-07-09T05:40:32;24.30;99.90
9658;DHT22;4867;48.112;11.622;2023-07-09T05:43:00;24.20;99.90
9658;DHT22;4867;48.112;11.622;2023-07-09T05:45:27;24.10;99.90
9658;DHT22;4867;48.112;11.622;2023-07-09T05:47:54;24.10;99.90
9658;DHT22;4867;48.112;11.622;2023-07-09T05:50:21;24.10;99.90
9658;DHT22;4867;48.112;11.622;2023-07-09T05:52:49;24.00;99.90
9658;DHT22;4867;48.112;11.622;2023-07-09T05:55:16;24.10;99.90
9658;DHT22;4867;48.112;11.622;2023-07-09T05:57:44;24.10;99.90
9658;DHT22;4867;48.112;11.622;2023-07-09T06:00:12;24.20;99.90
9658;DHT22;4867;48.112;11.622;2023-07-09T06:02:39;24.30;99.90
9658;DHT22;4867;48.112;11.622;2023-07-09T06:05:07;24.20;99.90
9658;DHT22;4867;48.112;11.622;2023-07-09T06:07:38;24.30;99.90
9658;DHT22;4867;48.112;11.622;2023-07-09T06:10:06;24.30;99.90
9658;DHT22;4867;48.112;11.622;2023-07-09T06:12:35;24.40;99.90
9658;DHT22;4867;48.112;11.622;2023-07-09T06:15:03;24.50;99.90
9658;DHT22;4867;48.112;11.622;2023-07-09T06:17:30;24.60;99.90
9658;DHT22;4867;48.112;11.622;2023-07-09T06:19:57;24.70;99.90
9658;DHT22;4867;48.112;11.622;2023-07-09T06:22:25;24.80;99.90
9658;DHT22;4867;48.112;11.622;2023-07-09T06:24:54;25.00;99.90
9658;DHT22;4867;48.112;11.622;2023-07-09T06:27:21;25.10;99.90
9658;DHT22;4867;48.112;11.622;2023-07-09T06:29:49;25.20;99.90
9658;DHT22;4867;48.112;11.622;2023-07-09T06:32:16;25.30;99.90
9658;DHT22;4867;48.112;11.622;2023-07-09T06:34:43;25.40;99.90
9658;DHT22;4867;48.112;11.622;2023-07-09T06:37:10;25.40;99.90
9658;DHT22;4867;48.112;11.622;2023-07-09T06:39:38;25.50;99.90
9658;DHT22;4867;48.112;11.622;2023-07-09T06:42:05;25.50;99.90
9658;DHT22;4867;48.112;11.622;2023-07-09T06:45:02;25.60;99.90
9658;DHT22;4867;48.112;11.622;2023-07-09T06:47:31;25.60;99.90
9658;DHT22;4867;48.112;11.622;2023-07-09T06:49:58;25.70;99.90
9658;DHT22;4867;48.112;11.622;2023-07-09T06:52:25;25.90;99.90
9658;DHT22;4867;48.112;11.622;2023-07-09T06:54:54;26.00;99.90
9658;DHT22;4867;48.112;11.622;2023-07-09T06:57:21;26.10;99.90
9658;DHT22;4867;48.112;11.622;2023-07-09T06:59:49;26.30;99.90
9658;DHT22;4867;48.112;11.622;2023-07-09T07:02:16;26.40;99.90
9658;DHT22;4867;48.112;11.622;2023-07-09T07:04:43;26.40;99.90
9658;DHT22;4867;48.112;11.622;2023-07-09T07:07:11;26.50;99.90
9658;DHT22;4867;48.112;11.622;2023-07-09T07:09:38;26.60;99.90
9658;DHT22;4867;48.112;11.622;2023-07-09T07:12:06;26.70;99.90
9658;DHT22;4867;48.112;11.622;2023-07-09T07:14:33;26.80;99.90
9658;DHT22;4867;48.112;11.622;2023-07-09T07:17:01;26.90;99.90
9658;DHT22;4867;48.112;11.622;2023-07-09T07:19:28;27.00;99.90
9658;DHT22;4867;48.112;11.622;2023-07-09T07:21:55;27.10;99.90
9658;DHT22;4867;48.112;11.622;2023-07-09T07:24:22;27.00;99.90
9658;DHT22;4867;48.112;11.622;2023-07-09T07:26:50;27.10;99.90
9658;DHT22;4867;48.112;11.622;2023-07-09T07:29:17;27.20;99.90
9658;DHT22;4867;48.112;11.622;2023-07-09T07:31:44;27.30;99.90
9658;DHT22;4867;48.112;11.622;2023-07-09T07:34:11;27.30;99.90
9658;DHT22;4867;48.112;11.622;2023-07-09T07:36:39;27.40;99.90
9658;DHT22;4867;48.112;11.622;2023-07-09T07:39:09;27.50;99.90
9658;DHT22;4867;48.112;11.622;2023-07-09T07:41:37;27.60;99.90
9658;DHT22;4867;48.112;11.622;2023-07-09T07:44:05;27.80;99.90
9658;DHT22;4867;48.112;11.622;2023-07-09T07:46:33;27.90;99.90
9658;DHT22;4867;48.112;11.622;2023-07-09T07:49:00;28.00;99.90
9658;DHT22;4867;48.112;11.622;2023-07-09T07:51:29;27.90;99.90
9658;DHT22;4867;48.112;11.622;2023-07-09T07:53:56;28.00;99.90
9658;DHT22;4867;48.112;11.622;2023-07-09T07:56:24;28.10;99.90
9658;DHT22;4867;48.112;11.622;2023-07-09T07:58:52;28.20;99.90
9658;DHT22;4867;48.112;11.622;2023-07-09T08:01:20;28.30;99.90
9658;DHT22;4867;48.112;11.622;2023-07-09T08:03:47;28.40;99.00
9658;DHT22;4867;48.112;11.622;2023-07-09T08:06:15;28.30;98.90
9658;DHT22;4867;48.112;11.622;2023-07-09T08:08:43;28.40;98.60
9658;DHT22;4867;48.112;11.622;2023-07-09T08:11:10;28.40;97.90
9658;DHT22;4867;48.112;11.622;2023-07-09T08:13:38;28.50;97.60
9658;DHT22;4867;48.112;11.622;2023-07-09T08:16:06;28.50;97.80
9658;DHT22;4867;48.112;11.622;2023-07-09T08:18:34;28.60;97.60
9658;DHT22;4867;48.112;11.622;2023-07-09T08:21:02;28.60;97.30
9658;DHT22;4867;48.112;11.622;2023-07-09T08:23:30;28.70;97.50
9658;DHT22;4867;48.112;11.622;2023-07-09T08:26:00;28.80;97.20
9658;DHT22;4867;48.112;11.622;2023-07-09T08:28:30;29.00;96.60
9658;DHT22;4867;48.112;11.622;2023-07-09T08:30:58;29.10;95.80
9658;DHT22;4867;48.112;11.622;2023-07-09T08:33:25;29.20;95.20
9658;DHT22;4867;48.112;11.622;2023-07-09T08:35:53;29.30;92.50
9658;DHT22;4867;48.112;11.622;2023-07-09T08:38:21;29.30;93.10
9658;DHT22;4867;48.112;11.622;2023-07-09T08:40:59;29.30;93.50
9658;DHT22;4867;48.112;11.622;2023-07-09T08:49:29;29.60;90.00
9658;DHT22;4867;48.112;11.622;2023-07-09T08:51:58;29.60;90.20
9658;DHT22;4867;48.112;11.622;2023-07-09T08:54:28;29.60;92.20
9658;DHT22;4867;48.112;11.622;2023-07-09T08:56:59;29.60;90.90
9658;DHT22;4867;48.112;11.622;2023-07-09T08:59:27;29.70;91.30
9658;DHT22;4867;48.112;11.622;2023-07-09T09:01:57;29.70;91.70
9658;DHT22;4867;48.112;11.622;2023-07-09T09:04:34;29.90;91.30
9658;DHT22;4867;48.112;11.622;2023-07-09T09:10:16;30.10;88.40
9658;DHT22;4867;48.112;11.622;2023-07-09T09:13:01;30.20;88.20
9658;DHT22;4867;48.112;11.622;2023-07-09T09:15:31;30.30;88.60
9658;DHT22;4867;48.112;11.622;2023-07-09T09:18:15;30.30;89.20
9658;DHT22;4867;48.112;11.622;2023-07-09T09:20:48;30.40;85.80
9658;DHT22;4867;48.112;11.622;2023-07-09T09:23:19;30.50;86.00
9658;DHT22;4867;48.112;11.622;2023-07-09T09:25:51;30.60;87.10
9658;DHT22;4867;48.112;11.622;2023-07-09T09:28:39;30.60;83.60
9658;DHT22;4867;48.112;11.622;2023-07-09T09:31:10;30.50;84.10
9658;DHT22;4867;48.112;11.622;2023-07-09T09:33:42;30.50;83.40
9658;DHT22;4867;48.112;11.622;2023-07-09T09:36:19;30.50;83.40
9658;DHT22;4867;48.112;11.622;2023-07-09T09:38:47;30.60;82.60
9658;DHT22;4867;48.112;11.622;2023-07-09T09:41:19;30.70;84.80
9658;DHT22;4867;48.112;11.622;2023-07-09T09:43:48;30.80;84.10
9658;DHT22;4867;48.112;11.622;2023-07-09T09:46:21;30.80;81.50
9658;DHT22;4867;48.112;11.622;2023-07-09T09:48:51;30.80;80.90
9658;DHT22;4867;48.112;11.622;2023-07-09T09:51:20;30.80;81.60
9658;DHT22;4867;48.112;11.622;2023-07-09T09:53:55;30.90;82.20
9658;DHT22;4867;48.112;11.622;2023-07-09T09:56:29;31.00;81.60
9658;DHT22;4867;48.112;11.622;2023-07-09T09:58:58;31.00;81.00
9658;DHT22;4867;48.112;11.622;2023-07-09T10:01:30;31.10;79.40
9658;DHT22;4867;48.112;11.622;2023-07-09T10:03:59;31.10;79.00
9658;DHT22;4867;48.112;11.622;2023-07-09T10:06:42;31.10;78.90
9658;DHT22;4867;48.112;11.622;2023-07-09T10:20:45;31.40;81.90
9658;DHT22;4867;48.112;11.622;2023-07-09T10:23:22;31.50;83.30
9658;DHT22;4867;48.112;11.622;2023-07-09T10:26:14;31.30;79.70
9658;DHT22;4867;48.112;11.622;2023-07-09T10:28:52;31.50;80.60
9658;DHT22;4867;48.112;11.622;2023-07-09T10:31:55;31.60;79.50
9658;DHT22;4867;48.112;11.622;2023-07-09T10:34:55;31.70;79.10
9658;DHT22;4867;48.112;11.622;2023-07-09T10:40:18;31.80;75.60
9658;DHT22;4867;48.112;11.622;2023-07-09T10:42:55;31.80;77.80
9658;DHT22;4867;48.112;11.622;2023-07-09T10:45:54;32.00;79.70
9658;DHT22;4867;48.112;11.622;2023-07-09T10:48:41;32.20;75.80
9658;DHT22;4867;48.112;11.622;2023-07-09T10:51:41;32.20;74.70
9658;DHT22;4867;48.112;11.622;2023-07-09T10:56:48;32.00;75.60
9658;DHT22;4867;48.112;11.622;2023-07-09T10:59:27;31.80;75.80
9658;DHT22;4867;48.112;11.622;2023-07-09T11:02:16;31.80;75.50
9658;DHT22;4867;48.112;11.622;2023-07-09T11:04:51;31.90;75.60
9658;DHT22;4867;48.112;11.622;2023-07-09T11:07:48;32.10;76.60
9658;DHT22;4867;48.112;11.622;2023-07-09T11:10:22;32.00;76.00
9658;DHT22;4867;48.112;11.622;2023-07-09T11:13:12;32.10;75.90
9658;DHT22;4867;48.112;11.622;2023-07-09T11:15:43;32.10;74.70
9658;DHT22;4867;48.112;11.622;2023-07-09T11:18:29;32.30;76.00
9658;DHT22;4867;48.112;11.622;2023-07-09T11:21:04;32.40;74.10
9658;DHT22;4867;48.112;11.622;2023-07-09T11:26:13;32.20;74.30
9658;DHT22;4867;48.112;11.622;2023-07-09T11:28:48;32.30;74.00
9658;DHT22;4867;48.112;11.622;2023-07-09T11:31:31;32.20;74.70
9658;DHT22;4867;48.112;11.622;2023-07-09T11:36:49;32.50;74.20
9658;DHT22;4867;48.112;11.622;2023-07-09T11:39:21;32.20;75.60
9658;DHT22;4867;48.112;11.622;2023-07-09T11:41:48;32.20;75.80
9658;DHT22;4867;48.112;11.622;2023-07-09T11:44:19;32.10;75.30
9658;DHT22;4867;48.112;11.622;2023-07-09T11:52:48;31.70;74.10
9658;DHT22;4867;48.112;11.622;2023-07-09T11:55:27;31.80;74.20
9658;DHT22;4867;48.112;11.622;2023-07-09T11:57:58;31.90;73.90
9658;DHT22;4867;48.112;11.622;2023-07-09T12:00:30;31.90;73.50
9658;DHT22;4867;48.112;11.622;2023-07-09T12:03:01;32.20;74.20
9658;DHT22;4867;48.112;11.622;2023-07-09T12:05:29;32.30;72.60
9658;DHT22;4867;48.112;11.622;2023-07-09T12:07:58;32.40;73.00
9658;DHT22;4867;48.112;11.622;2023-07-09T12:10:33;32.60;73.10
9658;DHT22;4867;48.112;11.622;2023-07-09T12:13:01;32.70;71.80
9658;DHT22;4867;48.112;11.622;2023-07-09T12:15:31;32.70;72.00
9658;DHT22;4867;48.112;11.622;2023-07-09T12:18:01;32.90;71.20
9658;DHT22;4867;48.112;11.622;2023-07-09T12:20:30;33.00;70.80
9658;DHT22;4867;48.112;11.622;2023-07-09T12:22:58;33.20;70.70
9658;DHT22;4867;48.112;11.622;2023-07-09T12:25:28;33.30;70.10
9658;DHT22;4867;48.112;11.622;2023-07-09T12:27:58;33.30;68.90
9658;DHT22;4867;48.112;11.622;2023-07-09T12:30:25;33.30;69.10
9658;DHT22;4867;48.112;11.622;2023-07-09T12:32:53;33.40;69.00
9658;DHT22;4867;48.112;11.622;2023-07-09T12:35:21;33.50;69.70
9658;DHT22;4867;48.112;11.622;2023-07-09T12:37:50;33.50;68.90
9658;DHT22;4867;48.112;11.622;2023-07-09T12:40:22;33.60;68.00
9658;DHT22;4867;48.112;11.622;2023-07-09T12:42:50;33.50;67.60
9658;DHT22;4867;48.112;11.622;2023-07-09T12:45:19;33.60;66.70
9658;DHT22;4867;48.112;11.622;2023-07-09T12:47:49;33.60;66.40
9658;DHT22;4867;48.112;11.622;2023-07-09T12:50:48;33.70;67.60
9658;DHT22;4867;48.112;11.622;2023-07-09T12:53:19;33.80;65.70
9658;DHT22;4867;48.112;11.622;2023-07-09T12:55:49;33.80;66.10
9658;DHT22;4867;48.112;11.622;2023-07-09T12:58:28;33.90;65.80
9658;DHT22;4867;48.112;11.622;2023-07-09T13:00:56;34.20;66.70
9658;DHT22;4867;48.112;11.622;2023-07-09T13:03:29;34.40;66.50
9658;DHT22;4867;48.112;11.622;2023-07-09T13:06:02;34.50;65.30
9658;DHT22;4867;48.112;11.622;2023-07-09T13:08:41;34.30;63.80
9658;DHT22;4867;48.112;11.622;2023-07-09T13:11:16;34.20;64.20
9658;DHT22;4867;48.112;11.622;2023-07-09T13:13:55;34.20;63.50
9658;DHT22;4867;48.112;11.622;2023-07-09T13:16:23;34.20;63.40
9658;DHT22;4867;48.112;11.622;2023-07-09T13:18:50;34.10;64.30
9658;DHT22;4867;48.112;11.622;2023-07-09T13:21:19;34.10;64.40
9658;DHT22;4867;48.112;11.622;2023-07-09T13:23:47;34.10;64.40
9658;DHT22;4867;48.112;11.622;2023-07-09T13:26:15;34.00;63.20
9658;DHT22;4867;48.112;11.622;2023-07-09T13:28:43;33.70;63.20
9658;DHT22;4867;48.112;11.622;2023-07-09T13:31:17;33.50;63.00
9658;DHT22;4867;48.112;11.622;2023-07-09T13:33:57;33.30;63.10
9658;DHT22;4867;48.112;11.622;2023-07-09T13:36:25;33.10;63.00
9658;DHT22;4867;48.112;11.622;2023-07-09T13:38:52;33.00;63.70
9658;DHT22;4867;48.112;11.622;2023-07-09T13:41:20;32.70;66.10
9658;DHT22;4867;48.112;11.622;2023-07-09T13:43:49;32.60;66.80
9658;DHT22;4867;48.112;11.622;2023-07-09T13:46:17;32.40;66.10
9658;DHT22;4867;48.112;11.622;2023-07-09T13:48:45;32.30;66.00
9658;DHT22;4867;48.112;11.622;2023-07-09T13:51:23;32.30;65.40
9658;DHT22;4867;48.112;11.622;2023-07-09T13:53:53;32.20;65.40
9658;DHT22;4867;48.112;11.622;2023-07-09T13:56:22;32.20;65.90
9658;DHT22;4867;48.112;11.622;2023-07-09T13:58:50;32.20;66.10
9658;DHT22;4867;48.112;11.622;2023-07-09T14:01:21;32.30;68.10
9658;DHT22;4867;48.112;11.622;2023-07-09T14:03:49;32.50;67.40
9658;DHT22;4867;48.112;11.622;2023-07-09T14:06:17;32.60;65.90
9658;DHT22;4867;48.112;11.622;2023-07-09T14:08:45;32.90;65.50
9658;DHT22;4867;48.112;11.622;2023-07-09T14:11:13;33.10;66.00
9658;DHT22;4867;48.112;11.622;2023-07-09T14:13:42;33.30;65.60
9658;DHT22;4867;48.112;11.622;2023-07-09T14:16:11;33.40;65.00
9658;DHT22;4867;48.112;11.622;2023-07-09T14:18:39;33.60;65.60
9658;DHT22;4867;48.112;11.622;2023-07-09T14:21:21;33.90;64.80
9658;DHT22;4867;48.112;11.622;2023-07-09T14:23:50;33.90;63.60
9658;DHT22;4867;48.112;11.622;2023-07-09T14:26:18;34.00;63.60
9658;DHT22;4867;48.112;11.622;2023-07-09T14:28:45;34.00;62.90
9658;DHT22;4867;48.112;11.622;2023-07-09T14:31:28;34.10;62.80
9658;DHT22;4867;48.112;11.622;2023-07-09T14:34:07;34.10;62.00
9658;DHT22;4867;48.112;11.622;2023-07-09T14:36:38;34.20;62.40
9658;DHT22;4867;48.112;11.622;2023-07-09T14:39:09;34.10;62.20
9658;DHT22;4867;48.112;11.622;2023-07-09T14:41:37;34.10;62.40
9658;DHT22;4867;48.112;11.622;2023-07-09T14:44:15;34.00;62.20
9658;DHT22;4867;48.112;11.622;2023-07-09T14:46:46;34.00;61.80
9658;DHT22;4867;48.112;11.622;2023-07-09T14:49:13;34.00;62.10
9658;DHT22;4867;48.112;11.622;2023-07-09T14:51:40;34.00;62.00
9658;DHT22;4867;48.112;11.622;2023-07-09T14:54:19;34.00;62.90
9658;DHT22;4867;48.112;11.622;2023-07-09T14:56:51;34.00;62.50
9658;DHT22;4867;48.112;11.622;2023-07-09T14:59:19;33.90;61.70
9658;DHT22;4867;48.112;11.622;2023-07-09T15:01:47;33.90;62.70
9658;DHT22;4867;48.112;11.622;2023-07-09T15:04:32;33.90;62.50
9658;DHT22;4867;48.112;11.622;2023-07-09T15:07:01;33.90;62.00
9658;DHT22;4867;48.112;11.622;2023-07-09T15:09:28;33.90;61.90
9658;DHT22;4867;48.112;11.622;2023-07-09T15:11:59;33.90;62.00
9658;DHT22;4867;48.112;11.622;2023-07-09T15:14:27;33.90;62.00
9658;DHT22;4867;48.112;11.622;2023-07-09T15:16:55;34.00;62.40
9658;DHT22;4867;48.112;11.622;2023-07-09T15:19:27;33.90;61.50
9658;DHT22;4867;48.112;11.622;2023-07-09T15:21:54;34.00;62.00
9658;DHT22;4867;48.112;11.622;2023-07-09T15:24:28;34.00;62.20
9658;DHT22;4867;48.112;11.622;2023-07-09T15:26:58;34.00;61.70
9658;DHT22;4867;48.112;11.622;2023-07-09T15:29:28;33.90;61.00
9658;DHT22;4867;48.112;11.622;2023-07-09T15:31:56;34.00;61.40
9658;DHT22;4867;48.112;11.622;2023-07-09T15:34:23;34.10;61.50
9658;DHT22;4867;48.112;11.622;2023-07-09T15:36:51;34.20;60.80
9658;DHT22;4867;48.112;11.622;2023-07-09T15:39:20;34.10;61.30
9658;DHT22;4867;48.112;11.622;2023-07-09T15:41:47;34.10;61.10
9658;DHT22;4867;48.112;11.622;2023-07-09T15:44:16;34.20;61.70
9658;DHT22;4867;48.112;11.622;2023-07-09T15:46:53;34.10;60.50
9658;DHT22;4867;48.112;11.622;2023-07-09T15:49:23;34.10;60.60
9658;DHT22;4867;48.112;11.622;2023-07-09T15:51:50;34.20;60.90
9658;DHT22;4867;48.112;11.622;2023-07-09T15:54:20;34.30;60.60
9658;DHT22;4867;48.112;11.622;2023-07-09T15:56:48;34.30;60.10
9658;DHT22;4867;48.112;11.622;2023-07-09T15:59:28;34.40;60.20
9658;DHT22;4867;48.112;11.622;2023-07-09T16:01:57;34.60;59.70
9658;DHT22;4867;48.112;11.622;2023-07-09T16:04:26;34.90;59.00
9658;DHT22;4867;48.112;11.622;2023-07-09T16:06:54;35.00;59.80
9658;DHT22;4867;48.112;11.622;2023-07-09T16:09:22;35.20;58.60
9658;DHT22;4867;48.112;11.622;2023-07-09T16:11:52;35.40;59.30
9658;DHT22;4867;48.112;11.622;2023-07-09T16:14:28;35.70;58.90
9658;DHT22;4867;48.112;11.622;2023-07-09T16:16:57;36.10;58.80
9658;DHT22;4867;48.112;11.622;2023-07-09T16:19:26;36.30;58.20
9658;DHT22;4867;48.112;11.622;2023-07-09T16:22:04;36.40;58.10
9658;DHT22;4867;48.112;11.622;2023-07-09T16:24:34;36.50;56.60
9658;DHT22;4867;48.112;11.622;2023-07-09T16:27:05;36.50;57.10
9658;DHT22;4867;48.112;11.622;2023-07-09T16:29:34;36.60;56.60
9658;DHT22;4867;48.112;11.622;2023-07-09T16:32:01;36.50;57.00
9658;DHT22;4867;48.112;11.622;2023-07-09T16:34:32;36.40;55.90
9658;DHT22;4867;48.112;11.622;2023-07-09T16:37:00;36.20;56.20
9658;DHT22;4867;48.112;11.622;2023-07-09T16:39:36;36.30;56.40
9658;DHT22;4867;48.112;11.622;2023-07-09T16:42:12;36.20;56.60
9658;DHT22;4867;48.112;11.622;2023-07-09T16:44:40;36.20;56.50
9658;DHT22;4867;48.112;11.622;2023-07-09T16:47:18;36.20;56.30
9658;DHT22;4867;48.112;11.622;2023-07-09T16:49:47;36.30;55.00
9658;DHT22;4867;48.112;11.622;2023-07-09T16:52:17;36.30;55.80
9658;DHT22;4867;48.112;11.622;2023-07-09T16:54:44;36.40;56.00